SWR250 VABB-LSZH
Flight info
| Callsign | SWR250 |
|---|---|
| Flight time | N/A |
| Altitude | 36000 |
| Route | ANOLI2A ISRIS DCT EXOLU M638 KARKU/N0495F380 M638 IGANU P518 PARET G208 KEBUD L124 SODOK L713 PEGOS T216 DAR/N0514F280 G208 ROVAD/N0496F380 Y11 IKA A647 RUS R661 MIVAK/N0488F400 M715 ZAJ/N0509F280 G208 GETOB/N0488F400 G208 OTENA L124 TUDNU G781 BONAM UT366 VAN UT367 ESEPO UL852 NEGEM Q6 GRN T226 NAVOD DCT DIRER DCT BAREB DCT RADLY DCT ERKIR/N0509F300 L608 KPT L856 NEGRA |
| Aircraft | A359/H-SDE2E3GHIJ3J4J5LM1ORWXY/LB1D1 |
Departure
| Time | 2026-04-27 05:27 |
|---|---|
| Airport | Chhatrapati Shivaji Maharaj International Airport (VABB) |
Arrival
| Time | N/A |
|---|---|
| Airport | Zürich Airport (LSZH) |
| Time | Latitude | Longitude | Altitude | Speed | Heading |
|---|---|---|---|---|---|
| 2026-04-27 04:11 | 19.09479 | 72.87345 | 39 ft | 0 kts | 317° |
| 2026-04-27 04:41 | 19.09480 | 72.87345 | 39 ft | 0 kts | 317° |
| 2026-04-27 04:49 | 19.09479 | 72.87345 | 40 ft | 0 kts | 317° |
| 2026-04-27 04:51 | 19.09480 | 72.87345 | 39 ft | 0 kts | 317° |
| 2026-04-27 04:51 | 19.09480 | 72.87344 | 39 ft | 0 kts | 317° |
| 2026-04-27 05:12 | 19.09469 | 72.87355 | 38 ft | 4 kts | 311° |
| 2026-04-27 05:13 | 19.09453 | 72.87377 | 37 ft | 4 kts | 297° |
| 2026-04-27 05:13 | 19.09443 | 72.87403 | 37 ft | 4 kts | 284° |
| 2026-04-27 05:13 | 19.09438 | 72.87427 | 39 ft | 2 kts | 280° |
| 2026-04-27 05:13 | 19.09435 | 72.87452 | 39 ft | 4 kts | 263° |
| 2026-04-27 05:14 | 19.09441 | 72.87479 | 38 ft | 4 kts | 246° |
| 2026-04-27 05:14 | 19.09448 | 72.87494 | 35 ft | 3 kts | 245° |
| 2026-04-27 05:20 | 19.09427 | 72.87447 | 36 ft | 11 kts | 243° |
| 2026-04-27 05:20 | 19.09376 | 72.87382 | 39 ft | 13 kts | 216° |
| 2026-04-27 05:20 | 19.09283 | 72.87360 | 39 ft | 15 kts | 185° |
| 2026-04-27 05:21 | 19.09227 | 72.87302 | 39 ft | 12 kts | 233° |
| 2026-04-27 05:21 | 19.09143 | 72.87264 | 39 ft | 15 kts | 178° |
| 2026-04-27 05:21 | 19.09061 | 72.87311 | 39 ft | 15 kts | 107° |
| 2026-04-27 05:21 | 19.09053 | 72.87435 | 39 ft | 19 kts | 92° |
| 2026-04-27 05:22 | 19.09055 | 72.87592 | 39 ft | 24 kts | 88° |
| 2026-04-27 05:22 | 19.09061 | 72.87782 | 38 ft | 28 kts | 88° |
| 2026-04-27 05:22 | 19.09066 | 72.87994 | 38 ft | 19 kts | 91° |
| 2026-04-27 05:22 | 19.09031 | 72.88039 | 38 ft | 8 kts | 154° |
| 2026-04-27 05:23 | 19.08972 | 72.88051 | 36 ft | 10 kts | 176° |
| 2026-04-27 05:23 | 19.08901 | 72.88035 | 36 ft | 11 kts | 225° |
| 2026-04-27 05:23 | 19.08886 | 72.87942 | 36 ft | 13 kts | 269° |
| 2026-04-27 05:23 | 19.08886 | 72.87924 | 36 ft | 0 kts | 269° |
| 2026-04-27 05:26 | 19.08886 | 72.87907 | 36 ft | 7 kts | 269° |
| 2026-04-27 05:26 | 19.08884 | 72.87777 | 37 ft | 42 kts | 268° |
| 2026-04-27 05:26 | 19.08875 | 72.87243 | 39 ft | 101 kts | 269° |
| 2026-04-27 05:26 | 19.08863 | 72.86308 | 36 ft | 151 kts | 270° |
| 2026-04-27 05:27 | 19.08861 | 72.85065 | 213 ft | 181 kts | 266° |
| 2026-04-27 05:27 | 19.08838 | 72.83805 | 969 ft | 165 kts | 266° |
| 2026-04-27 05:27 | 19.08722 | 72.82581 | 1461 ft | 170 kts | 264° |
| 2026-04-27 05:27 | 19.08577 | 72.81329 | 1959 ft | 175 kts | 265° |
| 2026-04-27 05:28 | 19.08442 | 72.79992 | 2366 ft | 189 kts | 269° |
| 2026-04-27 05:28 | 19.08414 | 72.78580 | 2675 ft | 198 kts | 274° |
| 2026-04-27 05:28 | 19.08492 | 72.77106 | 3022 ft | 206 kts | 277° |
| 2026-04-27 05:28 | 19.08939 | 72.75663 | 3360 ft | 209 kts | 304° |
| 2026-04-27 05:29 | 19.10023 | 72.74652 | 3719 ft | 212 kts | 337° |
| 2026-04-27 05:29 | 19.11494 | 72.74481 | 4135 ft | 216 kts | 6° |
| 2026-04-27 05:29 | 19.13020 | 72.74680 | 4388 ft | 231 kts | 7° |
| 2026-04-27 05:29 | 19.14686 | 72.74955 | 4592 ft | 251 kts | 7° |
| 2026-04-27 05:30 | 19.15859 | 72.75035 | 4791 ft | 259 kts | 357° |
| 2026-04-27 05:30 | 19.18291 | 72.74783 | 5493 ft | 265 kts | 353° |
| 2026-04-27 05:30 | 19.20117 | 72.74595 | 6021 ft | 269 kts | 355° |
| 2026-04-27 05:30 | 19.21386 | 72.74488 | 6382 ft | 272 kts | 355° |
| 2026-04-27 05:31 | 19.23921 | 72.74307 | 7067 ft | 277 kts | 356° |
| 2026-04-27 05:31 | 19.25206 | 72.74225 | 7433 ft | 279 kts | 356° |
| 2026-04-27 05:31 | 19.27807 | 72.74070 | 8197 ft | 283 kts | 356° |
| 2026-04-27 05:31 | 19.29124 | 72.73986 | 8580 ft | 286 kts | 355° |
| 2026-04-27 05:32 | 19.31685 | 72.73280 | 9311 ft | 291 kts | 332° |
| 2026-04-27 05:32 | 19.32822 | 72.72462 | 9685 ft | 294 kts | 316° |
| 2026-04-27 05:32 | 19.34125 | 72.70800 | 10125 ft | 301 kts | 303° |
| 2026-04-27 05:32 | 19.35226 | 72.68844 | 10405 ft | 316 kts | 297° |
| 2026-04-27 05:33 | 19.36219 | 72.66700 | 10663 ft | 331 kts | 294° |
| 2026-04-27 05:33 | 19.37191 | 72.64431 | 10927 ft | 345 kts | 293° |
| 2026-04-27 05:33 | 19.38185 | 72.62105 | 11178 ft | 357 kts | 294° |
| 2026-04-27 05:33 | 19.39256 | 72.59663 | 11423 ft | 370 kts | 294° |
| 2026-04-27 05:34 | 19.40383 | 72.57163 | 11669 ft | 380 kts | 295° |
| 2026-04-27 05:34 | 19.41559 | 72.54615 | 12018 ft | 387 kts | 295° |
| 2026-04-27 05:34 | 19.42748 | 72.52071 | 12449 ft | 391 kts | 295° |
| 2026-04-27 05:34 | 19.43973 | 72.49464 | 12892 ft | 395 kts | 295° |
| 2026-04-27 05:35 | 19.45205 | 72.46843 | 13356 ft | 398 kts | 295° |
| 2026-04-27 05:35 | 19.46444 | 72.44202 | 13797 ft | 402 kts | 295° |
| 2026-04-27 05:35 | 19.47689 | 72.41542 | 14227 ft | 404 kts | 295° |
| 2026-04-27 05:35 | 19.48930 | 72.38887 | 14668 ft | 406 kts | 295° |
| 2026-04-27 05:36 | 19.50197 | 72.36172 | 15092 ft | 409 kts | 295° |
| 2026-04-27 05:36 | 19.51446 | 72.33491 | 15514 ft | 411 kts | 295° |
| 2026-04-27 05:36 | 19.52723 | 72.30751 | 15934 ft | 414 kts | 295° |
| 2026-04-27 05:36 | 19.54002 | 72.28007 | 16335 ft | 416 kts | 296° |
| 2026-04-27 05:37 | 19.55294 | 72.25232 | 16732 ft | 419 kts | 296° |
| 2026-04-27 05:37 | 19.56574 | 72.22481 | 17147 ft | 421 kts | 296° |
| 2026-04-27 05:37 | 19.57882 | 72.19670 | 17563 ft | 424 kts | 296° |
| 2026-04-27 05:37 | 19.59197 | 72.16843 | 17958 ft | 427 kts | 296° |
| 2026-04-27 05:38 | 19.60496 | 72.14049 | 18308 ft | 429 kts | 296° |
| 2026-04-27 05:38 | 19.61823 | 72.11192 | 18680 ft | 431 kts | 296° |
| 2026-04-27 05:38 | 19.63149 | 72.08334 | 19057 ft | 432 kts | 296° |
| 2026-04-27 05:38 | 19.64480 | 72.05464 | 19448 ft | 433 kts | 296° |
| 2026-04-27 05:39 | 19.65801 | 72.02617 | 19836 ft | 434 kts | 296° |
| 2026-04-27 05:39 | 19.67137 | 71.99736 | 20237 ft | 435 kts | 295° |
| 2026-04-27 05:39 | 19.68474 | 71.96851 | 20622 ft | 436 kts | 295° |
| 2026-04-27 05:39 | 19.69814 | 71.93958 | 20981 ft | 438 kts | 295° |
| 2026-04-27 05:40 | 19.71165 | 71.91039 | 21362 ft | 440 kts | 295° |
| 2026-04-27 05:40 | 19.72509 | 71.88134 | 21731 ft | 442 kts | 295° |
| 2026-04-27 05:40 | 19.73874 | 71.85179 | 22114 ft | 444 kts | 295° |
| 2026-04-27 05:40 | 19.75237 | 71.82230 | 22511 ft | 446 kts | 295° |
| 2026-04-27 05:41 | 19.76590 | 71.79299 | 22891 ft | 447 kts | 295° |
| 2026-04-27 05:41 | 19.77966 | 71.76318 | 23267 ft | 449 kts | 295° |
| 2026-04-27 05:41 | 19.79330 | 71.73361 | 23594 ft | 451 kts | 295° |
| 2026-04-27 05:41 | 19.80720 | 71.70345 | 23896 ft | 453 kts | 295° |
| 2026-04-27 05:42 | 19.82105 | 71.67339 | 24229 ft | 454 kts | 294° |
| 2026-04-27 05:42 | 19.83483 | 71.64348 | 24586 ft | 455 kts | 294° |
| 2026-04-27 05:42 | 19.84877 | 71.61321 | 24947 ft | 456 kts | 294° |
| 2026-04-27 05:42 | 19.86276 | 71.58279 | 25323 ft | 458 kts | 294° |
| 2026-04-27 05:43 | 19.87681 | 71.55224 | 25714 ft | 459 kts | 294° |
| 2026-04-27 05:43 | 19.89088 | 71.52164 | 26116 ft | 461 kts | 294° |
| 2026-04-27 05:43 | 19.90482 | 71.49129 | 26505 ft | 462 kts | 293° |
| 2026-04-27 05:43 | 19.91899 | 71.46041 | 26891 ft | 464 kts | 293° |
| 2026-04-27 05:44 | 19.93324 | 71.42937 | 27278 ft | 465 kts | 293° |
| 2026-04-27 05:44 | 19.94728 | 71.39874 | 27674 ft | 467 kts | 293° |
| 2026-04-27 05:44 | 19.96157 | 71.36757 | 28055 ft | 469 kts | 293° |
| 2026-04-27 05:44 | 19.97589 | 71.33629 | 28417 ft | 470 kts | 293° |
| 2026-04-27 05:45 | 19.99012 | 71.30521 | 28771 ft | 472 kts | 292° |
| 2026-04-27 05:45 | 20.00459 | 71.27360 | 29134 ft | 473 kts | 292° |
| 2026-04-27 05:45 | 20.01894 | 71.24222 | 29462 ft | 475 kts | 292° |
| 2026-04-27 05:45 | 20.03348 | 71.21040 | 29780 ft | 477 kts | 292° |
| 2026-04-27 05:46 | 20.04806 | 71.17849 | 30050 ft | 479 kts | 292° |
| 2026-04-27 05:46 | 20.06247 | 71.14693 | 30371 ft | 478 kts | 292° |
| 2026-04-27 05:46 | 20.07699 | 71.11513 | 30751 ft | 477 kts | 292° |
| 2026-04-27 05:46 | 20.09144 | 71.08345 | 31115 ft | 476 kts | 292° |
| 2026-04-27 05:47 | 20.10593 | 71.05169 | 31483 ft | 474 kts | 292° |
| 2026-04-27 05:47 | 20.12019 | 71.02039 | 31872 ft | 472 kts | 291° |
| 2026-04-27 05:47 | 20.13455 | 70.98888 | 32254 ft | 470 kts | 291° |
| 2026-04-27 05:47 | 20.14880 | 70.95755 | 32628 ft | 468 kts | 291° |
| 2026-04-27 05:48 | 20.16301 | 70.92632 | 33004 ft | 467 kts | 291° |
| 2026-04-27 05:48 | 20.17696 | 70.89562 | 33402 ft | 464 kts | 290° |
| 2026-04-27 05:48 | 20.19104 | 70.86464 | 33785 ft | 462 kts | 290° |
| 2026-04-27 05:48 | 20.20498 | 70.83394 | 34086 ft | 460 kts | 290° |
| 2026-04-27 05:49 | 20.21882 | 70.80342 | 34280 ft | 461 kts | 290° |
| 2026-04-27 05:49 | 20.23283 | 70.77249 | 34461 ft | 462 kts | 290° |
| 2026-04-27 05:49 | 20.24685 | 70.74153 | 34663 ft | 463 kts | 290° |
| 2026-04-27 05:49 | 20.26072 | 70.71091 | 34850 ft | 464 kts | 291° |
| 2026-04-27 05:50 | 20.27474 | 70.67991 | 35036 ft | 464 kts | 291° |
| 2026-04-27 05:50 | 20.28881 | 70.64882 | 35243 ft | 464 kts | 291° |
| 2026-04-27 05:50 | 20.30275 | 70.61800 | 35425 ft | 465 kts | 291° |
| 2026-04-27 05:50 | 20.31686 | 70.58677 | 35617 ft | 466 kts | 291° |
| 2026-04-27 05:51 | 20.33095 | 70.55558 | 35779 ft | 467 kts | 291° |
| 2026-04-27 05:51 | 20.35917 | 70.49297 | 35826 ft | 473 kts | 291° |
| 2026-04-27 05:52 | 20.38772 | 70.42964 | 35824 ft | 473 kts | 291° |
| 2026-04-27 05:52 | 20.41615 | 70.36652 | 35823 ft | 473 kts | 291° |
| 2026-04-27 05:53 | 20.44461 | 70.30325 | 35825 ft | 474 kts | 292° |
| 2026-04-27 05:53 | 20.47301 | 70.24002 | 35827 ft | 474 kts | 292° |
| 2026-04-27 05:54 | 20.50159 | 70.17631 | 35825 ft | 475 kts | 292° |
| 2026-04-27 05:54 | 20.53011 | 70.11264 | 35828 ft | 475 kts | 292° |
| 2026-04-27 05:55 | 20.55853 | 70.04915 | 35827 ft | 476 kts | 292° |
| 2026-04-27 05:55 | 20.58695 | 69.98557 | 35830 ft | 476 kts | 292° |
| 2026-04-27 05:56 | 20.61555 | 69.92151 | 35830 ft | 477 kts | 292° |
| 2026-04-27 05:56 | 20.64414 | 69.85740 | 35833 ft | 478 kts | 292° |
| 2026-04-27 05:57 | 20.67258 | 69.79354 | 35832 ft | 478 kts | 292° |
| 2026-04-27 05:57 | 20.70110 | 69.72943 | 35831 ft | 479 kts | 292° |
| 2026-04-27 05:58 | 20.72961 | 69.66527 | 35829 ft | 479 kts | 293° |
| 2026-04-27 05:58 | 20.75826 | 69.60072 | 35827 ft | 480 kts | 293° |
| 2026-04-27 05:59 | 20.78677 | 69.53640 | 35831 ft | 480 kts | 293° |
| 2026-04-27 05:59 | 20.81548 | 69.47156 | 35828 ft | 481 kts | 293° |
| 2026-04-27 06:00 | 20.85832 | 69.37464 | 35829 ft | 481 kts | 293° |
| 2026-04-27 06:00 | 20.88681 | 69.31008 | 35829 ft | 482 kts | 293° |
| 2026-04-27 06:01 | 20.91545 | 69.24511 | 35833 ft | 482 kts | 293° |
| 2026-04-27 06:01 | 20.94400 | 69.18027 | 35831 ft | 482 kts | 293° |
| 2026-04-27 06:02 | 20.97533 | 69.11693 | 35829 ft | 485 kts | 303° |
| 2026-04-27 06:02 | 21.01937 | 69.06173 | 35831 ft | 488 kts | 312° |
| 2026-04-27 06:03 | 21.06755 | 69.01040 | 35829 ft | 489 kts | 314° |
| 2026-04-27 06:03 | 21.11613 | 68.95976 | 35826 ft | 489 kts | 314° |
| 2026-04-27 06:04 | 21.16470 | 68.90852 | 35829 ft | 489 kts | 313° |
| 2026-04-27 06:04 | 21.21306 | 68.85701 | 35830 ft | 489 kts | 313° |
| 2026-04-27 06:05 | 21.26107 | 68.80570 | 35828 ft | 489 kts | 313° |
| 2026-04-27 06:05 | 21.30926 | 68.75416 | 35828 ft | 489 kts | 313° |
| 2026-04-27 06:06 | 21.35742 | 68.70262 | 35826 ft | 489 kts | 313° |
| 2026-04-27 06:06 | 21.40560 | 68.65103 | 35828 ft | 489 kts | 314° |
| 2026-04-27 06:07 | 21.45378 | 68.59939 | 35827 ft | 489 kts | 314° |
| 2026-04-27 06:07 | 21.50191 | 68.54775 | 35825 ft | 490 kts | 314° |
| 2026-04-27 06:08 | 21.54986 | 68.49625 | 35823 ft | 490 kts | 314° |
| 2026-04-27 06:08 | 21.59829 | 68.44417 | 35824 ft | 490 kts | 314° |
| 2026-04-27 06:09 | 21.64650 | 68.39229 | 35824 ft | 490 kts | 314° |
| 2026-04-27 06:09 | 21.69457 | 68.34050 | 35821 ft | 490 kts | 314° |
| 2026-04-27 06:10 | 21.74244 | 68.28888 | 35821 ft | 490 kts | 314° |
| 2026-04-27 06:10 | 21.79056 | 68.23695 | 35821 ft | 490 kts | 314° |
| 2026-04-27 06:11 | 21.83881 | 68.18481 | 35823 ft | 490 kts | 314° |
| 2026-04-27 06:11 | 21.88671 | 68.13300 | 35818 ft | 490 kts | 314° |
| 2026-04-27 06:12 | 21.93494 | 68.08078 | 35818 ft | 490 kts | 314° |
| 2026-04-27 06:12 | 21.98292 | 68.02877 | 35819 ft | 490 kts | 314° |
| 2026-04-27 06:13 | 22.03100 | 67.97662 | 35815 ft | 490 kts | 314° |
| 2026-04-27 06:13 | 22.07892 | 67.92459 | 35814 ft | 490 kts | 314° |
| 2026-04-27 06:14 | 22.12700 | 67.87249 | 35817 ft | 490 kts | 314° |
| 2026-04-27 06:14 | 22.17508 | 67.82034 | 35815 ft | 490 kts | 314° |
| 2026-04-27 06:15 | 22.22289 | 67.76842 | 35815 ft | 489 kts | 314° |
| 2026-04-27 06:15 | 22.27095 | 67.71617 | 35817 ft | 489 kts | 314° |
| 2026-04-27 06:16 | 22.31093 | 67.67267 | 35814 ft | 489 kts | 314° |
| 2026-04-27 06:16 | 22.35875 | 67.62058 | 35810 ft | 489 kts | 314° |
| 2026-04-27 06:17 | 22.40669 | 67.56831 | 35812 ft | 488 kts | 314° |
| 2026-04-27 06:17 | 22.45440 | 67.51624 | 35810 ft | 488 kts | 314° |
| 2026-04-27 06:18 | 22.50196 | 67.46428 | 35810 ft | 488 kts | 314° |
| 2026-04-27 06:18 | 22.54963 | 67.41214 | 35808 ft | 487 kts | 314° |
| 2026-04-27 06:19 | 22.59731 | 67.35994 | 35806 ft | 487 kts | 314° |
| 2026-04-27 06:19 | 22.64494 | 67.30774 | 35808 ft | 487 kts | 314° |
| 2026-04-27 06:20 | 22.69271 | 67.25532 | 35808 ft | 487 kts | 314° |
| 2026-04-27 06:20 | 22.74005 | 67.20333 | 35807 ft | 486 kts | 314° |
| 2026-04-27 06:21 | 22.78739 | 67.15128 | 35804 ft | 486 kts | 314° |
| 2026-04-27 06:21 | 22.83488 | 67.09901 | 35802 ft | 486 kts | 314° |
| 2026-04-27 06:22 | 22.88222 | 67.04685 | 35803 ft | 486 kts | 314° |
| 2026-04-27 06:22 | 22.92943 | 66.99478 | 35802 ft | 485 kts | 314° |
| 2026-04-27 06:23 | 22.97674 | 66.94256 | 35802 ft | 485 kts | 314° |
| 2026-04-27 06:23 | 23.02414 | 66.89004 | 35800 ft | 484 kts | 313° |
| 2026-04-27 06:24 | 23.07106 | 66.83792 | 35799 ft | 484 kts | 313° |
| 2026-04-27 06:24 | 23.11834 | 66.78538 | 35798 ft | 484 kts | 313° |
| 2026-04-27 06:25 | 23.16510 | 66.73339 | 35797 ft | 483 kts | 313° |
| 2026-04-27 06:25 | 23.21209 | 66.68108 | 35797 ft | 483 kts | 313° |
| 2026-04-27 06:26 | 23.25904 | 66.62878 | 35794 ft | 483 kts | 313° |
| 2026-04-27 06:26 | 23.30610 | 66.57628 | 35793 ft | 483 kts | 313° |
| 2026-04-27 06:27 | 23.35290 | 66.52402 | 35791 ft | 482 kts | 313° |
| 2026-04-27 06:27 | 23.39947 | 66.47197 | 35792 ft | 482 kts | 313° |
| 2026-04-27 06:28 | 23.44634 | 66.41951 | 35790 ft | 482 kts | 313° |
| 2026-04-27 06:28 | 23.49341 | 66.36768 | 35791 ft | 482 kts | 317° |
| 2026-04-27 06:29 | 23.54636 | 66.32313 | 35789 ft | 483 kts | 323° |
| 2026-04-27 06:29 | 23.60127 | 66.28056 | 35789 ft | 483 kts | 323° |
| 2026-04-27 06:30 | 23.65609 | 66.23855 | 35788 ft | 483 kts | 323° |
| 2026-04-27 06:30 | 23.68363 | 66.21738 | 35924 ft | 482 kts | 323° |
| 2026-04-27 06:30 | 23.71097 | 66.19631 | 36270 ft | 478 kts | 323° |
| 2026-04-27 06:31 | 23.73803 | 66.17541 | 36615 ft | 475 kts | 323° |
| 2026-04-27 06:31 | 23.76464 | 66.15482 | 36906 ft | 472 kts | 323° |
| 2026-04-27 06:31 | 23.79150 | 66.13402 | 37178 ft | 470 kts | 323° |
| 2026-04-27 06:31 | 23.81821 | 66.11331 | 37426 ft | 469 kts | 323° |
| 2026-04-27 06:32 | 23.83088 | 66.10348 | 37530 ft | 469 kts | 323° |
| 2026-04-27 06:32 | 23.85305 | 66.08629 | 37715 ft | 468 kts | 323° |
| 2026-04-27 06:32 | 23.90628 | 66.04497 | 37783 ft | 473 kts | 323° |
| 2026-04-27 06:33 | 23.95992 | 66.00330 | 37784 ft | 472 kts | 323° |
| 2026-04-27 06:33 | 24.01355 | 65.96166 | 37782 ft | 471 kts | 323° |
| 2026-04-27 06:34 | 24.06704 | 65.92005 | 37779 ft | 471 kts | 323° |
| 2026-04-27 06:34 | 24.12040 | 65.87842 | 37782 ft | 471 kts | 323° |
| 2026-04-27 06:35 | 24.17378 | 65.83677 | 37779 ft | 471 kts | 323° |
| 2026-04-27 06:35 | 24.22699 | 65.79522 | 37775 ft | 471 kts | 323° |
| 2026-04-27 06:36 | 24.28054 | 65.75337 | 37773 ft | 470 kts | 323° |
| 2026-04-27 06:36 | 24.33356 | 65.71189 | 37779 ft | 470 kts | 323° |
| 2026-04-27 06:37 | 24.38692 | 65.67009 | 37774 ft | 470 kts | 323° |
| 2026-04-27 06:37 | 24.44001 | 65.62847 | 37769 ft | 469 kts | 323° |
| 2026-04-27 06:38 | 24.49309 | 65.58681 | 37770 ft | 469 kts | 322° |
| 2026-04-27 06:38 | 24.54620 | 65.54507 | 37770 ft | 469 kts | 322° |
| 2026-04-27 06:39 | 24.59923 | 65.50337 | 37772 ft | 468 kts | 322° |
| 2026-04-27 06:39 | 24.65196 | 65.46185 | 37774 ft | 468 kts | 322° |
| 2026-04-27 06:40 | 24.70496 | 65.42007 | 37761 ft | 468 kts | 322° |
| 2026-04-27 06:40 | 24.75766 | 65.37849 | 37769 ft | 467 kts | 322° |
| 2026-04-27 06:41 | 24.81046 | 65.33678 | 37768 ft | 467 kts | 322° |
| 2026-04-27 06:41 | 24.86320 | 65.29508 | 37757 ft | 467 kts | 322° |
| 2026-04-27 06:42 | 24.91622 | 65.25310 | 37756 ft | 466 kts | 322° |
| 2026-04-27 06:42 | 24.96864 | 65.21156 | 37774 ft | 466 kts | 322° |
| 2026-04-27 06:43 | 25.02110 | 65.16994 | 37759 ft | 466 kts | 322° |
| 2026-04-27 06:43 | 25.07374 | 65.12814 | 37764 ft | 465 kts | 322° |
| 2026-04-27 06:44 | 25.12629 | 65.08636 | 37763 ft | 465 kts | 322° |
| 2026-04-27 06:44 | 25.17858 | 65.04474 | 37762 ft | 465 kts | 322° |
| 2026-04-27 06:45 | 25.23088 | 65.00308 | 37764 ft | 464 kts | 322° |
| 2026-04-27 06:45 | 25.28345 | 64.96115 | 37763 ft | 464 kts | 322° |
| 2026-04-27 06:46 | 25.33560 | 64.91951 | 37766 ft | 463 kts | 322° |
| 2026-04-27 06:46 | 25.38795 | 64.87766 | 37768 ft | 463 kts | 321° |
| 2026-04-27 06:47 | 25.44345 | 64.84131 | 37765 ft | 467 kts | 332° |
| 2026-04-27 06:47 | 25.50312 | 64.81267 | 37761 ft | 468 kts | 334° |
| 2026-04-27 06:48 | 25.56323 | 64.78525 | 37765 ft | 468 kts | 334° |
| 2026-04-27 06:48 | 25.62324 | 64.75792 | 37765 ft | 468 kts | 334° |
| 2026-04-27 06:49 | 25.68362 | 64.73021 | 37764 ft | 468 kts | 334° |
| 2026-04-27 06:49 | 25.74373 | 64.70250 | 37762 ft | 468 kts | 334° |
| 2026-04-27 06:50 | 25.80372 | 64.67479 | 37762 ft | 468 kts | 334° |
| 2026-04-27 06:50 | 25.86408 | 64.64689 | 37766 ft | 468 kts | 334° |
| 2026-04-27 06:51 | 25.92377 | 64.61928 | 37762 ft | 468 kts | 334° |
| 2026-04-27 06:51 | 25.98374 | 64.59151 | 37759 ft | 468 kts | 334° |
| 2026-04-27 06:52 | 26.04390 | 64.56367 | 37771 ft | 468 kts | 333° |
| 2026-04-27 06:52 | 26.10390 | 64.53570 | 37767 ft | 467 kts | 333° |
| 2026-04-27 06:53 | 26.16418 | 64.50755 | 37766 ft | 467 kts | 333° |
| 2026-04-27 06:53 | 26.22383 | 64.47970 | 37771 ft | 467 kts | 333° |
| 2026-04-27 06:54 | 26.28388 | 64.45165 | 37775 ft | 467 kts | 333° |
| 2026-04-27 06:54 | 26.34379 | 64.42365 | 37783 ft | 467 kts | 333° |
| 2026-04-27 06:55 | 26.40350 | 64.39569 | 37782 ft | 467 kts | 333° |
| 2026-04-27 06:55 | 26.46355 | 64.36754 | 37788 ft | 467 kts | 333° |
| 2026-04-27 06:56 | 26.52330 | 64.33952 | 37793 ft | 467 kts | 333° |
| 2026-04-27 06:56 | 26.58308 | 64.31144 | 37798 ft | 467 kts | 333° |
| 2026-04-27 06:57 | 26.64304 | 64.28324 | 37798 ft | 466 kts | 333° |
| 2026-04-27 06:57 | 26.70273 | 64.25514 | 37801 ft | 466 kts | 333° |
| 2026-04-27 06:58 | 26.79243 | 64.21285 | 37807 ft | 467 kts | 333° |
| 2026-04-27 06:59 | 26.85229 | 64.18459 | 37808 ft | 467 kts | 333° |
| 2026-04-27 06:59 | 26.91069 | 64.15440 | 37810 ft | 462 kts | 325° |
| 2026-04-27 07:00 | 26.96030 | 64.11003 | 37813 ft | 454 kts | 309° |
| 2026-04-27 07:00 | 26.99629 | 64.05240 | 37809 ft | 451 kts | 299° |
| 2026-04-27 07:01 | 27.02741 | 63.99087 | 37809 ft | 451 kts | 297° |
| 2026-04-27 07:01 | 27.05764 | 63.92962 | 37810 ft | 451 kts | 297° |
| 2026-04-27 07:02 | 27.08819 | 63.86820 | 37807 ft | 451 kts | 298° |
| 2026-04-27 07:02 | 27.11885 | 63.80697 | 37805 ft | 451 kts | 298° |
| 2026-04-27 07:03 | 27.14465 | 63.75548 | 37799 ft | 451 kts | 298° |
| 2026-04-27 07:03 | 27.17538 | 63.69405 | 37801 ft | 451 kts | 298° |
| 2026-04-27 07:04 | 27.20605 | 63.63264 | 37797 ft | 451 kts | 298° |
| 2026-04-27 07:04 | 27.23653 | 63.57150 | 37802 ft | 451 kts | 297° |
| 2026-04-27 07:05 | 27.26716 | 63.50996 | 37807 ft | 451 kts | 297° |
| 2026-04-27 07:05 | 27.29773 | 63.44847 | 37803 ft | 451 kts | 297° |
| 2026-04-27 07:06 | 27.32834 | 63.38683 | 37805 ft | 451 kts | 297° |
| 2026-04-27 07:06 | 27.35889 | 63.32519 | 37809 ft | 450 kts | 297° |
| 2026-04-27 07:07 | 27.38936 | 63.26364 | 37806 ft | 450 kts | 297° |
| 2026-04-27 07:07 | 27.41962 | 63.20243 | 37810 ft | 450 kts | 297° |
| 2026-04-27 07:08 | 27.44994 | 63.14098 | 37813 ft | 450 kts | 297° |
| 2026-04-27 07:08 | 27.48044 | 63.07912 | 37816 ft | 449 kts | 297° |
| 2026-04-27 07:09 | 27.51060 | 63.01784 | 37814 ft | 449 kts | 297° |
| 2026-04-27 07:09 | 27.54088 | 62.95623 | 37814 ft | 449 kts | 297° |
| 2026-04-27 07:10 | 27.57111 | 62.89463 | 37818 ft | 449 kts | 297° |
| 2026-04-27 07:10 | 27.60128 | 62.83308 | 37820 ft | 449 kts | 297° |
| 2026-04-27 07:11 | 27.63145 | 62.77135 | 37826 ft | 448 kts | 297° |
| 2026-04-27 07:11 | 27.66127 | 62.70994 | 37824 ft | 448 kts | 297° |
| 2026-04-27 07:12 | 27.69130 | 62.64806 | 37825 ft | 448 kts | 297° |
| 2026-04-27 07:12 | 27.72119 | 62.58643 | 37829 ft | 447 kts | 297° |
| 2026-04-27 07:13 | 27.75095 | 62.52500 | 37836 ft | 447 kts | 297° |
| 2026-04-27 07:13 | 27.78074 | 62.46343 | 37840 ft | 447 kts | 297° |
| 2026-04-27 07:14 | 27.81059 | 62.40163 | 37844 ft | 447 kts | 297° |
| 2026-04-27 07:14 | 27.84036 | 62.33994 | 37853 ft | 447 kts | 297° |
| 2026-04-27 07:15 | 27.86991 | 62.27860 | 37858 ft | 447 kts | 296° |
| 2026-04-27 07:15 | 27.89954 | 62.21699 | 37861 ft | 447 kts | 297° |
| 2026-04-27 07:16 | 27.92928 | 62.15505 | 37873 ft | 447 kts | 297° |
| 2026-04-27 07:16 | 27.95888 | 62.09333 | 37874 ft | 446 kts | 296° |
| 2026-04-27 07:17 | 27.98845 | 62.03160 | 37888 ft | 446 kts | 296° |
| 2026-04-27 07:17 | 28.01784 | 61.97011 | 37887 ft | 446 kts | 296° |
| 2026-04-27 07:18 | 28.04745 | 61.90811 | 37891 ft | 446 kts | 296° |
| 2026-04-27 07:18 | 28.07686 | 61.84639 | 37897 ft | 446 kts | 296° |
| 2026-04-27 07:19 | 28.10618 | 61.78485 | 37900 ft | 446 kts | 296° |
| 2026-04-27 07:19 | 28.13560 | 61.72291 | 37902 ft | 446 kts | 296° |
| 2026-04-27 07:20 | 28.16504 | 61.66097 | 37903 ft | 446 kts | 296° |
| 2026-04-27 07:20 | 28.20141 | 61.60391 | 37902 ft | 451 kts | 311° |
| 2026-04-27 07:21 | 28.24819 | 61.55651 | 37895 ft | 454 kts | 316° |
| 2026-04-27 07:21 | 28.29707 | 61.51107 | 37914 ft | 454 kts | 317° |
| 2026-04-27 07:22 | 28.34615 | 61.46577 | 37906 ft | 454 kts | 316° |
| 2026-04-27 07:22 | 28.39496 | 61.42033 | 37912 ft | 453 kts | 316° |
| 2026-04-27 07:23 | 28.44358 | 61.37481 | 37920 ft | 453 kts | 316° |
| 2026-04-27 07:23 | 28.49214 | 61.32922 | 37929 ft | 454 kts | 316° |
| 2026-04-27 07:24 | 28.54097 | 61.28332 | 37948 ft | 454 kts | 316° |
| 2026-04-27 07:24 | 28.58957 | 61.23762 | 37944 ft | 454 kts | 316° |
| 2026-04-27 07:25 | 28.63823 | 61.19179 | 37953 ft | 454 kts | 316° |
| 2026-04-27 07:25 | 28.68674 | 61.14607 | 37964 ft | 454 kts | 316° |
| 2026-04-27 07:26 | 28.73539 | 61.10015 | 37965 ft | 454 kts | 316° |
| 2026-04-27 07:26 | 28.78377 | 61.05440 | 37968 ft | 453 kts | 316° |
| 2026-04-27 07:27 | 28.83232 | 61.00847 | 37961 ft | 452 kts | 316° |
| 2026-04-27 07:27 | 28.88041 | 60.96292 | 37965 ft | 451 kts | 316° |
| 2026-04-27 07:28 | 28.92874 | 60.91707 | 37960 ft | 451 kts | 315° |
| 2026-04-27 07:28 | 28.97633 | 60.86987 | 37959 ft | 448 kts | 310° |
| 2026-04-27 07:29 | 29.01412 | 60.81412 | 37961 ft | 443 kts | 301° |
| 2026-04-27 07:29 | 29.04759 | 60.75529 | 37951 ft | 442 kts | 299° |
| 2026-04-27 07:30 | 29.08044 | 60.69599 | 37945 ft | 442 kts | 299° |
| 2026-04-27 07:30 | 29.11329 | 60.63682 | 37944 ft | 442 kts | 299° |
| 2026-04-27 07:31 | 29.14641 | 60.57741 | 37933 ft | 441 kts | 299° |
| 2026-04-27 07:31 | 29.17952 | 60.51804 | 37932 ft | 441 kts | 299° |
| 2026-04-27 07:32 | 29.21246 | 60.45889 | 37926 ft | 441 kts | 299° |
| 2026-04-27 07:32 | 29.24732 | 60.40107 | 37937 ft | 445 kts | 307° |
| 2026-04-27 07:33 | 29.29101 | 60.35056 | 37928 ft | 448 kts | 312° |
| 2026-04-27 07:33 | 29.33670 | 60.30197 | 37933 ft | 449 kts | 313° |
| 2026-04-27 07:34 | 29.38263 | 60.25361 | 37946 ft | 449 kts | 312° |
| 2026-04-27 07:34 | 29.42842 | 60.20512 | 37944 ft | 449 kts | 312° |
| 2026-04-27 07:35 | 29.47421 | 60.15637 | 37947 ft | 448 kts | 312° |
| 2026-04-27 07:35 | 29.51985 | 60.10769 | 37948 ft | 448 kts | 312° |
| 2026-04-27 07:36 | 29.56551 | 60.05890 | 37945 ft | 448 kts | 312° |
| 2026-04-27 07:36 | 29.61102 | 60.01024 | 37938 ft | 448 kts | 312° |
| 2026-04-27 07:37 | 29.65666 | 59.96137 | 37938 ft | 448 kts | 312° |
| 2026-04-27 07:37 | 29.70085 | 59.91102 | 37934 ft | 445 kts | 307° |
| 2026-04-27 07:38 | 29.74150 | 59.85726 | 37927 ft | 444 kts | 306° |
| 2026-04-27 07:38 | 29.78122 | 59.80348 | 37917 ft | 444 kts | 306° |
| 2026-04-27 07:39 | 29.82110 | 59.74929 | 37912 ft | 444 kts | 306° |
| 2026-04-27 07:39 | 29.86102 | 59.69510 | 37900 ft | 444 kts | 306° |
| 2026-04-27 07:40 | 29.90099 | 59.64085 | 37897 ft | 443 kts | 306° |
| 2026-04-27 07:40 | 29.94070 | 59.58690 | 37892 ft | 443 kts | 306° |
| 2026-04-27 07:41 | 29.98069 | 59.53248 | 37889 ft | 443 kts | 306° |
| 2026-04-27 07:41 | 30.02056 | 59.47815 | 37892 ft | 443 kts | 306° |
| 2026-04-27 07:42 | 30.06042 | 59.42373 | 37890 ft | 443 kts | 306° |
| 2026-04-27 07:42 | 30.10009 | 59.36952 | 37892 ft | 443 kts | 306° |
| 2026-04-27 07:43 | 30.13992 | 59.31503 | 37889 ft | 443 kts | 305° |
| 2026-04-27 07:43 | 30.17941 | 59.26092 | 37891 ft | 443 kts | 305° |
| 2026-04-27 07:44 | 30.21931 | 59.20617 | 37890 ft | 443 kts | 305° |
| 2026-04-27 07:44 | 30.25880 | 59.15192 | 37886 ft | 443 kts | 305° |
| 2026-04-27 07:45 | 30.29845 | 59.09735 | 37889 ft | 443 kts | 305° |
| 2026-04-27 07:45 | 30.33795 | 59.04293 | 37890 ft | 443 kts | 305° |
| 2026-04-27 07:46 | 30.37780 | 58.98796 | 37897 ft | 442 kts | 305° |
| 2026-04-27 07:46 | 30.41706 | 58.93372 | 37897 ft | 443 kts | 305° |
| 2026-04-27 07:47 | 30.45680 | 58.87873 | 37894 ft | 442 kts | 305° |
| 2026-04-27 07:47 | 30.49621 | 58.82414 | 37897 ft | 442 kts | 305° |
| 2026-04-27 07:48 | 30.52889 | 58.77882 | 37897 ft | 442 kts | 305° |
| 2026-04-27 07:48 | 30.57471 | 58.71510 | 37896 ft | 441 kts | 305° |
| 2026-04-27 07:49 | 30.61397 | 58.66035 | 37903 ft | 441 kts | 305° |
| 2026-04-27 07:49 | 30.64666 | 58.61471 | 37902 ft | 441 kts | 305° |
| 2026-04-27 07:50 | 30.69232 | 58.55091 | 37904 ft | 441 kts | 305° |
| 2026-04-27 07:50 | 30.72500 | 58.50519 | 37901 ft | 440 kts | 305° |
| 2026-04-27 07:51 | 30.76415 | 58.45034 | 37897 ft | 440 kts | 305° |
| 2026-04-27 07:51 | 30.80309 | 58.39571 | 37906 ft | 439 kts | 305° |
| 2026-04-27 07:52 | 30.84212 | 58.34086 | 37911 ft | 439 kts | 305° |
| 2026-04-27 07:52 | 30.88101 | 58.28617 | 37914 ft | 439 kts | 305° |
| 2026-04-27 07:53 | 30.92003 | 58.23118 | 37912 ft | 438 kts | 304° |
| 2026-04-27 07:53 | 30.95873 | 58.17658 | 37919 ft | 438 kts | 304° |
| 2026-04-27 07:54 | 30.99743 | 58.12190 | 37921 ft | 438 kts | 304° |
| 2026-04-27 07:54 | 31.03617 | 58.06709 | 37931 ft | 438 kts | 304° |
| 2026-04-27 07:55 | 31.07470 | 58.01250 | 37930 ft | 437 kts | 304° |
| 2026-04-27 07:55 | 31.11330 | 57.95773 | 37936 ft | 437 kts | 304° |
| 2026-04-27 07:56 | 31.15207 | 57.90264 | 37942 ft | 438 kts | 304° |
| 2026-04-27 07:56 | 31.19051 | 57.84794 | 37945 ft | 438 kts | 304° |
| 2026-04-27 07:57 | 31.22914 | 57.79290 | 37947 ft | 438 kts | 304° |
| 2026-04-27 07:57 | 31.26778 | 57.73778 | 37945 ft | 438 kts | 304° |
| 2026-04-27 07:58 | 31.30636 | 57.68265 | 37944 ft | 438 kts | 304° |
| 2026-04-27 07:58 | 31.34481 | 57.62763 | 37943 ft | 438 kts | 304° |
| 2026-04-27 07:59 | 31.38335 | 57.57240 | 37942 ft | 438 kts | 304° |
| 2026-04-27 07:59 | 31.44088 | 57.48982 | 37939 ft | 437 kts | 304° |
| 2026-04-27 08:00 | 31.47930 | 57.43458 | 37934 ft | 437 kts | 304° |
| 2026-04-27 08:00 | 31.51791 | 57.37896 | 37934 ft | 437 kts | 304° |
| 2026-04-27 08:01 | 31.55620 | 57.32373 | 37933 ft | 437 kts | 304° |
| 2026-04-27 08:01 | 31.59441 | 57.26854 | 37932 ft | 437 kts | 304° |
| 2026-04-27 08:02 | 31.63269 | 57.21315 | 37930 ft | 437 kts | 304° |
| 2026-04-27 08:02 | 31.67084 | 57.15790 | 37928 ft | 436 kts | 304° |
| 2026-04-27 08:03 | 31.70888 | 57.10272 | 37929 ft | 436 kts | 304° |
| 2026-04-27 08:03 | 31.74704 | 57.04727 | 37920 ft | 436 kts | 304° |
| 2026-04-27 08:04 | 31.78444 | 56.99136 | 37940 ft | 434 kts | 300° |
| 2026-04-27 08:04 | 31.81844 | 56.93256 | 37928 ft | 433 kts | 299° |
| 2026-04-27 08:05 | 31.85151 | 56.87387 | 37934 ft | 433 kts | 299° |
| 2026-04-27 08:05 | 31.88461 | 56.81482 | 37929 ft | 433 kts | 299° |
| 2026-04-27 08:06 | 31.91788 | 56.75551 | 37928 ft | 433 kts | 299° |
| 2026-04-27 08:06 | 31.95118 | 56.69616 | 37933 ft | 433 kts | 299° |
| 2026-04-27 08:07 | 31.98417 | 56.63727 | 37942 ft | 432 kts | 299° |
| 2026-04-27 08:07 | 32.01724 | 56.57820 | 37938 ft | 432 kts | 299° |
| 2026-04-27 08:08 | 32.05038 | 56.51887 | 37938 ft | 432 kts | 299° |
| 2026-04-27 08:08 | 32.08333 | 56.45977 | 37941 ft | 432 kts | 298° |
| 2026-04-27 08:09 | 32.11648 | 56.40023 | 37942 ft | 432 kts | 298° |
| 2026-04-27 08:09 | 32.14934 | 56.34115 | 37943 ft | 433 kts | 298° |
| 2026-04-27 08:10 | 32.18240 | 56.28162 | 37943 ft | 432 kts | 298° |
| 2026-04-27 08:10 | 32.21523 | 56.22239 | 37941 ft | 432 kts | 298° |
| 2026-04-27 08:11 | 32.24810 | 56.16300 | 37941 ft | 432 kts | 298° |
| 2026-04-27 08:11 | 32.28116 | 56.10317 | 37932 ft | 432 kts | 298° |
| 2026-04-27 08:12 | 32.31397 | 56.04371 | 37929 ft | 432 kts | 298° |
| 2026-04-27 08:12 | 32.34655 | 55.98456 | 37929 ft | 432 kts | 298° |
| 2026-04-27 08:13 | 32.37942 | 55.92481 | 37922 ft | 432 kts | 298° |
| 2026-04-27 08:13 | 32.41209 | 55.86531 | 37918 ft | 431 kts | 298° |
| 2026-04-27 08:14 | 32.44482 | 55.80561 | 37918 ft | 431 kts | 298° |
| 2026-04-27 08:14 | 32.47730 | 55.74627 | 37916 ft | 430 kts | 298° |
| 2026-04-27 08:15 | 32.50978 | 55.68683 | 37913 ft | 430 kts | 298° |
| 2026-04-27 08:15 | 32.54218 | 55.62747 | 37913 ft | 430 kts | 298° |
| 2026-04-27 08:16 | 32.57464 | 55.56788 | 37913 ft | 430 kts | 298° |
| 2026-04-27 08:16 | 32.60707 | 55.50826 | 37911 ft | 430 kts | 298° |
| 2026-04-27 08:17 | 32.63936 | 55.44881 | 37919 ft | 430 kts | 298° |
| 2026-04-27 08:17 | 32.67179 | 55.38900 | 37919 ft | 430 kts | 298° |
| 2026-04-27 08:18 | 32.70414 | 55.32925 | 37916 ft | 430 kts | 298° |
| 2026-04-27 08:18 | 32.73640 | 55.26951 | 37913 ft | 430 kts | 298° |
| 2026-04-27 08:19 | 32.76882 | 55.20938 | 37915 ft | 430 kts | 298° |
| 2026-04-27 08:19 | 32.80100 | 55.14962 | 37909 ft | 430 kts | 297° |
| 2026-04-27 08:20 | 32.83328 | 55.08958 | 37907 ft | 430 kts | 297° |
| 2026-04-27 08:20 | 32.86550 | 55.02956 | 37908 ft | 430 kts | 297° |
| 2026-04-27 08:21 | 32.89756 | 54.96979 | 37894 ft | 431 kts | 298° |
| 2026-04-27 08:21 | 32.93139 | 54.91067 | 37913 ft | 432 kts | 300° |
| 2026-04-27 08:22 | 32.96595 | 54.85240 | 37900 ft | 432 kts | 300° |
| 2026-04-27 08:22 | 33.00039 | 54.79377 | 37898 ft | 431 kts | 299° |
| 2026-04-27 08:23 | 33.03442 | 54.73522 | 37899 ft | 431 kts | 299° |
| 2026-04-27 08:23 | 33.06845 | 54.67639 | 37898 ft | 431 kts | 299° |
| 2026-04-27 08:24 | 33.10253 | 54.61738 | 37901 ft | 430 kts | 299° |
| 2026-04-27 08:24 | 33.13635 | 54.55874 | 37903 ft | 430 kts | 299° |
| 2026-04-27 08:25 | 33.17038 | 54.49968 | 37905 ft | 430 kts | 299° |
| 2026-04-27 08:25 | 33.20411 | 54.44104 | 37908 ft | 430 kts | 299° |
| 2026-04-27 08:26 | 33.23787 | 54.38225 | 37907 ft | 430 kts | 299° |
| 2026-04-27 08:26 | 33.27178 | 54.32311 | 37914 ft | 429 kts | 298° |
| 2026-04-27 08:27 | 33.30556 | 54.26410 | 37914 ft | 429 kts | 298° |
| 2026-04-27 08:27 | 33.33913 | 54.20535 | 37908 ft | 429 kts | 298° |
| 2026-04-27 08:28 | 33.37262 | 54.14666 | 37901 ft | 429 kts | 298° |
| 2026-04-27 08:28 | 33.40642 | 54.08734 | 37910 ft | 429 kts | 298° |
| 2026-04-27 08:29 | 33.44001 | 54.02828 | 37908 ft | 429 kts | 298° |
| 2026-04-27 08:29 | 33.47349 | 53.96932 | 37904 ft | 430 kts | 298° |
| 2026-04-27 08:30 | 33.50713 | 53.91000 | 37905 ft | 430 kts | 298° |
| 2026-04-27 08:30 | 33.54351 | 53.85301 | 37915 ft | 435 kts | 303° |
| 2026-04-27 08:31 | 33.58310 | 53.79766 | 37921 ft | 437 kts | 304° |
| 2026-04-27 08:31 | 33.62301 | 53.74262 | 37926 ft | 436 kts | 304° |
| 2026-04-27 08:32 | 33.66281 | 53.68766 | 37930 ft | 436 kts | 304° |
| 2026-04-27 08:32 | 33.70243 | 53.63275 | 37934 ft | 436 kts | 304° |
| 2026-04-27 08:33 | 33.74200 | 53.57776 | 37935 ft | 437 kts | 304° |
| 2026-04-27 08:33 | 33.78169 | 53.52251 | 37936 ft | 437 kts | 304° |
| 2026-04-27 08:34 | 33.81477 | 53.47640 | 37933 ft | 437 kts | 304° |
| 2026-04-27 08:34 | 33.86093 | 53.41197 | 37931 ft | 437 kts | 304° |
| 2026-04-27 08:35 | 33.90056 | 53.35654 | 37929 ft | 437 kts | 304° |
| 2026-04-27 08:35 | 33.93362 | 53.31024 | 37929 ft | 437 kts | 304° |
| 2026-04-27 08:36 | 33.97313 | 53.25483 | 37928 ft | 437 kts | 304° |
| 2026-04-27 08:36 | 34.01272 | 53.19922 | 37930 ft | 437 kts | 304° |
| 2026-04-27 08:37 | 34.05247 | 53.14329 | 37927 ft | 437 kts | 304° |
| 2026-04-27 08:37 | 34.09193 | 53.08769 | 37929 ft | 438 kts | 304° |
| 2026-04-27 08:38 | 34.13158 | 53.03173 | 37932 ft | 438 kts | 304° |
| 2026-04-27 08:38 | 34.17107 | 52.97591 | 37932 ft | 438 kts | 304° |
| 2026-04-27 08:39 | 34.21073 | 52.91976 | 37934 ft | 439 kts | 304° |
| 2026-04-27 08:39 | 34.25040 | 52.86351 | 37936 ft | 439 kts | 304° |
| 2026-04-27 08:40 | 34.28987 | 52.80746 | 37936 ft | 440 kts | 304° |
| 2026-04-27 08:40 | 34.32967 | 52.75084 | 37938 ft | 441 kts | 304° |
| 2026-04-27 08:41 | 34.36937 | 52.69427 | 37937 ft | 441 kts | 303° |
| 2026-04-27 08:41 | 34.40905 | 52.63766 | 37945 ft | 442 kts | 304° |
| 2026-04-27 08:42 | 34.44894 | 52.58064 | 37940 ft | 443 kts | 303° |
| 2026-04-27 08:42 | 34.48857 | 52.52390 | 37944 ft | 443 kts | 303° |
| 2026-04-27 08:43 | 34.52847 | 52.46668 | 37942 ft | 443 kts | 303° |
| 2026-04-27 08:43 | 34.56823 | 52.40958 | 37948 ft | 444 kts | 303° |
| 2026-04-27 08:44 | 34.60815 | 52.35215 | 37949 ft | 444 kts | 303° |
| 2026-04-27 08:44 | 34.64803 | 52.29467 | 37950 ft | 445 kts | 303° |
| 2026-04-27 08:45 | 34.68785 | 52.23719 | 37943 ft | 445 kts | 303° |
| 2026-04-27 08:45 | 34.72785 | 52.17935 | 37949 ft | 446 kts | 303° |
| 2026-04-27 08:46 | 34.76760 | 52.12178 | 37937 ft | 447 kts | 303° |
| 2026-04-27 08:46 | 34.80762 | 52.06376 | 37947 ft | 447 kts | 304° |
| 2026-04-27 08:47 | 34.84744 | 52.00591 | 37944 ft | 448 kts | 303° |
| 2026-04-27 08:47 | 34.88737 | 51.94780 | 37942 ft | 448 kts | 303° |
| 2026-04-27 08:48 | 34.92747 | 51.88936 | 37942 ft | 448 kts | 303° |
| 2026-04-27 08:48 | 34.96752 | 51.83087 | 37942 ft | 449 kts | 303° |
| 2026-04-27 08:49 | 35.00752 | 51.77236 | 37946 ft | 449 kts | 303° |
| 2026-04-27 08:49 | 35.04766 | 51.71356 | 37938 ft | 450 kts | 303° |
| 2026-04-27 08:50 | 35.08761 | 51.65493 | 37941 ft | 450 kts | 303° |
| 2026-04-27 08:50 | 35.12746 | 51.59634 | 37944 ft | 450 kts | 303° |
| 2026-04-27 08:51 | 35.16754 | 51.53732 | 37942 ft | 451 kts | 303° |
| 2026-04-27 08:51 | 35.20760 | 51.47824 | 37946 ft | 451 kts | 303° |
| 2026-04-27 08:52 | 35.24743 | 51.41939 | 37962 ft | 451 kts | 303° |
| 2026-04-27 08:52 | 35.28752 | 51.36004 | 37971 ft | 452 kts | 303° |
| 2026-04-27 08:53 | 35.32759 | 51.30063 | 37988 ft | 453 kts | 303° |
| 2026-04-27 08:53 | 35.36776 | 51.24097 | 37991 ft | 453 kts | 304° |
| 2026-04-27 08:54 | 35.40142 | 51.17730 | 37996 ft | 443 kts | 290° |
| 2026-04-27 08:54 | 35.41941 | 51.10597 | 37999 ft | 436 kts | 278° |
| 2026-04-27 08:55 | 35.42961 | 51.03276 | 37986 ft | 436 kts | 276° |
| 2026-04-27 08:55 | 35.43895 | 50.95940 | 37978 ft | 437 kts | 277° |
| 2026-04-27 08:56 | 35.45766 | 50.88774 | 37995 ft | 445 kts | 291° |
| 2026-04-27 08:56 | 35.48958 | 50.82232 | 37977 ft | 450 kts | 298° |
| 2026-04-27 08:57 | 35.54182 | 50.72643 | 37982 ft | 452 kts | 298° |
| 2026-04-27 08:58 | 35.57687 | 50.66203 | 37986 ft | 452 kts | 298° |
| 2026-04-27 08:58 | 35.61154 | 50.59766 | 37992 ft | 453 kts | 298° |
| 2026-04-27 08:59 | 35.64629 | 50.53286 | 37989 ft | 453 kts | 298° |
| 2026-04-27 08:59 | 35.68086 | 50.46826 | 38002 ft | 453 kts | 298° |
| 2026-04-27 09:00 | 35.71536 | 50.40368 | 38002 ft | 454 kts | 298° |
| 2026-04-27 09:00 | 35.75001 | 50.33872 | 38004 ft | 454 kts | 298° |
| 2026-04-27 09:01 | 35.78463 | 50.27371 | 38006 ft | 454 kts | 298° |
| 2026-04-27 09:01 | 35.81924 | 50.20858 | 38004 ft | 455 kts | 298° |
| 2026-04-27 09:02 | 35.85394 | 50.14316 | 38004 ft | 455 kts | 298° |
| 2026-04-27 09:02 | 35.88862 | 50.07768 | 38010 ft | 455 kts | 298° |
| 2026-04-27 09:03 | 35.92305 | 50.01254 | 38017 ft | 455 kts | 298° |
| 2026-04-27 09:03 | 35.95763 | 49.94696 | 38024 ft | 456 kts | 298° |
| 2026-04-27 09:04 | 35.99214 | 49.88142 | 38016 ft | 455 kts | 297° |
| 2026-04-27 09:04 | 36.02669 | 49.81580 | 38029 ft | 455 kts | 298° |
| 2026-04-27 09:05 | 36.06100 | 49.75043 | 38019 ft | 456 kts | 297° |
| 2026-04-27 09:05 | 36.09555 | 49.68450 | 38012 ft | 456 kts | 297° |
| 2026-04-27 09:06 | 36.12994 | 49.61878 | 38004 ft | 456 kts | 297° |
| 2026-04-27 09:06 | 36.16430 | 49.55298 | 37999 ft | 457 kts | 297° |
| 2026-04-27 09:07 | 36.19880 | 49.48677 | 38001 ft | 457 kts | 297° |
| 2026-04-27 09:07 | 36.23330 | 49.42047 | 38009 ft | 457 kts | 297° |
| 2026-04-27 09:08 | 36.26763 | 49.35436 | 38011 ft | 456 kts | 297° |
| 2026-04-27 09:08 | 36.30171 | 49.28855 | 38014 ft | 457 kts | 297° |
| 2026-04-27 09:09 | 36.33605 | 49.22214 | 38015 ft | 457 kts | 297° |
| 2026-04-27 09:09 | 36.37054 | 49.15534 | 38022 ft | 457 kts | 297° |
| 2026-04-27 09:10 | 36.40471 | 49.08905 | 38025 ft | 457 kts | 297° |
| 2026-04-27 09:10 | 36.43894 | 49.02244 | 37994 ft | 457 kts | 297° |
| 2026-04-27 09:11 | 36.47304 | 48.95595 | 37997 ft | 458 kts | 297° |
| 2026-04-27 09:11 | 36.50728 | 48.88909 | 37997 ft | 459 kts | 297° |
| 2026-04-27 09:12 | 36.54163 | 48.82189 | 38005 ft | 459 kts | 297° |
| 2026-04-27 09:12 | 36.57584 | 48.75495 | 37991 ft | 460 kts | 297° |
| 2026-04-27 09:13 | 36.61013 | 48.68776 | 38011 ft | 460 kts | 297° |
| 2026-04-27 09:13 | 36.64434 | 48.62057 | 38004 ft | 460 kts | 297° |
| 2026-04-27 09:14 | 36.67848 | 48.55339 | 38015 ft | 461 kts | 297° |
| 2026-04-27 09:14 | 36.71298 | 48.48536 | 38017 ft | 461 kts | 297° |
| 2026-04-27 09:15 | 36.74715 | 48.41786 | 38021 ft | 462 kts | 297° |
| 2026-04-27 09:15 | 36.77946 | 48.34900 | 38019 ft | 457 kts | 289° |
| 2026-04-27 09:16 | 36.80287 | 48.27565 | 38025 ft | 455 kts | 286° |
| 2026-04-27 09:16 | 36.82453 | 48.20159 | 38012 ft | 455 kts | 285° |
| 2026-04-27 09:17 | 36.84596 | 48.12724 | 37989 ft | 455 kts | 285° |
| 2026-04-27 09:17 | 36.86748 | 48.05289 | 37969 ft | 456 kts | 285° |
| 2026-04-27 09:18 | 36.88891 | 47.97895 | 37954 ft | 456 kts | 285° |
| 2026-04-27 09:18 | 36.91061 | 47.90395 | 37942 ft | 457 kts | 285° |
| 2026-04-27 09:19 | 36.93211 | 47.82943 | 37942 ft | 457 kts | 285° |
| 2026-04-27 09:19 | 36.95366 | 47.75452 | 37943 ft | 457 kts | 285° |
| 2026-04-27 09:20 | 36.97146 | 47.69250 | 37951 ft | 457 kts | 285° |
| 2026-04-27 09:20 | 36.99651 | 47.60499 | 37948 ft | 458 kts | 285° |
| 2026-04-27 09:21 | 37.01430 | 47.54267 | 37954 ft | 458 kts | 285° |
| 2026-04-27 09:21 | 37.03578 | 47.46719 | 37961 ft | 458 kts | 285° |
| 2026-04-27 09:22 | 37.05698 | 47.39252 | 37964 ft | 458 kts | 285° |
| 2026-04-27 09:22 | 37.07824 | 47.31747 | 37974 ft | 458 kts | 285° |
| 2026-04-27 09:23 | 37.09970 | 47.24182 | 37982 ft | 458 kts | 285° |
| 2026-04-27 09:23 | 37.12081 | 47.16718 | 37976 ft | 458 kts | 285° |
| 2026-04-27 09:24 | 37.14205 | 47.09188 | 37990 ft | 458 kts | 285° |
| 2026-04-27 09:24 | 37.16329 | 47.01633 | 38001 ft | 458 kts | 285° |
| 2026-04-27 09:25 | 37.18433 | 46.94126 | 38011 ft | 459 kts | 285° |
| 2026-04-27 09:25 | 37.20544 | 46.86575 | 38014 ft | 459 kts | 285° |
| 2026-04-27 09:26 | 37.22656 | 46.79021 | 38011 ft | 459 kts | 285° |
| 2026-04-27 09:26 | 37.24759 | 46.71450 | 38016 ft | 459 kts | 285° |
| 2026-04-27 09:27 | 37.26859 | 46.63873 | 38017 ft | 459 kts | 285° |
| 2026-04-27 09:27 | 37.28946 | 46.56324 | 38020 ft | 459 kts | 285° |
| 2026-04-27 09:28 | 37.31041 | 46.48725 | 38011 ft | 459 kts | 285° |
| 2026-04-27 09:28 | 37.33126 | 46.41145 | 38004 ft | 459 kts | 285° |
| 2026-04-27 09:29 | 37.35198 | 46.33587 | 38000 ft | 460 kts | 285° |
| 2026-04-27 09:29 | 37.37289 | 46.25942 | 37997 ft | 460 kts | 285° |
| 2026-04-27 09:30 | 37.39360 | 46.18345 | 37993 ft | 460 kts | 285° |
| 2026-04-27 09:30 | 37.41426 | 46.10746 | 37999 ft | 460 kts | 285° |
| 2026-04-27 09:31 | 37.43494 | 46.03116 | 37993 ft | 460 kts | 285° |
| 2026-04-27 09:31 | 37.45550 | 45.95507 | 37995 ft | 460 kts | 285° |
| 2026-04-27 09:32 | 37.47607 | 45.87871 | 37992 ft | 460 kts | 285° |
| 2026-04-27 09:32 | 37.49645 | 45.80285 | 37991 ft | 460 kts | 285° |
| 2026-04-27 09:33 | 37.51698 | 45.72625 | 37992 ft | 461 kts | 285° |
| 2026-04-27 09:33 | 37.54181 | 45.65139 | 37991 ft | 464 kts | 291° |
| 2026-04-27 09:34 | 37.56967 | 45.57781 | 37995 ft | 465 kts | 292° |
| 2026-04-27 09:34 | 37.59774 | 45.50477 | 37998 ft | 466 kts | 292° |
| 2026-04-27 09:35 | 37.62599 | 45.43099 | 38002 ft | 467 kts | 292° |
| 2026-04-27 09:35 | 37.65402 | 45.35733 | 38007 ft | 467 kts | 292° |
| 2026-04-27 09:36 | 37.68216 | 45.28312 | 38012 ft | 468 kts | 292° |
| 2026-04-27 09:36 | 37.71023 | 45.20892 | 38016 ft | 468 kts | 292° |
| 2026-04-27 09:37 | 37.73831 | 45.13454 | 38018 ft | 469 kts | 292° |
| 2026-04-27 09:37 | 37.76621 | 45.06043 | 38018 ft | 469 kts | 292° |
| 2026-04-27 09:38 | 37.79429 | 44.98566 | 38016 ft | 470 kts | 292° |
| 2026-04-27 09:38 | 37.82228 | 44.91097 | 38011 ft | 471 kts | 292° |
| 2026-04-27 09:39 | 37.85017 | 44.83637 | 38005 ft | 471 kts | 292° |
| 2026-04-27 09:39 | 37.87818 | 44.76124 | 38005 ft | 472 kts | 292° |
| 2026-04-27 09:40 | 37.90632 | 44.68579 | 38016 ft | 473 kts | 291° |
| 2026-04-27 09:40 | 37.93437 | 44.61022 | 38023 ft | 474 kts | 291° |
| 2026-04-27 09:41 | 37.96232 | 44.53480 | 38029 ft | 474 kts | 291° |
| 2026-04-27 09:41 | 37.99022 | 44.45931 | 38028 ft | 475 kts | 291° |
| 2026-04-27 09:42 | 38.01824 | 44.38333 | 38035 ft | 475 kts | 291° |
| 2026-04-27 09:42 | 38.04625 | 44.30717 | 38032 ft | 476 kts | 291° |
| 2026-04-27 09:43 | 38.07595 | 44.23251 | 38049 ft | 478 kts | 296° |
| 2026-04-27 09:43 | 38.10898 | 44.15876 | 38036 ft | 478 kts | 296° |
| 2026-04-27 09:44 | 38.14162 | 44.08551 | 38049 ft | 478 kts | 296° |
| 2026-04-27 09:44 | 38.17392 | 44.01127 | 38072 ft | 478 kts | 295° |
| 2026-04-27 09:45 | 38.20577 | 43.93718 | 38058 ft | 478 kts | 295° |
| 2026-04-27 09:45 | 38.23743 | 43.86332 | 38065 ft | 478 kts | 295° |
| 2026-04-27 09:46 | 38.26930 | 43.78887 | 38069 ft | 479 kts | 295° |
| 2026-04-27 09:46 | 38.30120 | 43.71422 | 38076 ft | 479 kts | 295° |
| 2026-04-27 09:47 | 38.33287 | 43.63993 | 38086 ft | 479 kts | 295° |
| 2026-04-27 09:47 | 38.36471 | 43.56509 | 38091 ft | 480 kts | 295° |
| 2026-04-27 09:48 | 38.39642 | 43.49034 | 38096 ft | 480 kts | 295° |
| 2026-04-27 09:48 | 38.42802 | 43.41569 | 38104 ft | 481 kts | 295° |
| 2026-04-27 09:49 | 38.45986 | 43.34026 | 38103 ft | 481 kts | 295° |
| 2026-04-27 09:49 | 38.49088 | 43.26473 | 38104 ft | 481 kts | 293° |
| 2026-04-27 09:50 | 38.52037 | 43.18791 | 38104 ft | 481 kts | 293° |
| 2026-04-27 09:50 | 38.54964 | 43.11132 | 38096 ft | 482 kts | 293° |
| 2026-04-27 09:51 | 38.57926 | 43.03449 | 38090 ft | 482 kts | 293° |
| 2026-04-27 09:51 | 38.60903 | 42.95749 | 38084 ft | 482 kts | 293° |
| 2026-04-27 09:52 | 38.63880 | 42.88036 | 38082 ft | 483 kts | 293° |
| 2026-04-27 09:52 | 38.66830 | 42.80370 | 38084 ft | 483 kts | 293° |
| 2026-04-27 09:53 | 38.69798 | 42.72636 | 38080 ft | 484 kts | 293° |
| 2026-04-27 09:53 | 38.72766 | 42.64880 | 38083 ft | 484 kts | 293° |
| 2026-04-27 09:54 | 38.75733 | 42.57109 | 38082 ft | 485 kts | 293° |
| 2026-04-27 09:54 | 38.78682 | 42.49367 | 38083 ft | 485 kts | 293° |
| 2026-04-27 09:55 | 38.81639 | 42.41582 | 38083 ft | 486 kts | 293° |
| 2026-04-27 09:55 | 38.86056 | 42.29914 | 38074 ft | 487 kts | 293° |
| 2026-04-27 09:56 | 38.89021 | 42.22057 | 38075 ft | 487 kts | 292° |
| 2026-04-27 09:56 | 38.91957 | 42.14257 | 38072 ft | 487 kts | 292° |
| 2026-04-27 09:57 | 38.94908 | 42.06393 | 38066 ft | 487 kts | 292° |
| 2026-04-27 09:57 | 38.97827 | 41.98581 | 38066 ft | 487 kts | 292° |
| 2026-04-27 09:58 | 39.00750 | 41.90738 | 38068 ft | 487 kts | 292° |
| 2026-04-27 09:58 | 39.03675 | 41.82873 | 38056 ft | 487 kts | 292° |
| 2026-04-27 09:59 | 39.06575 | 41.75057 | 38071 ft | 486 kts | 292° |
| 2026-04-27 09:59 | 39.09481 | 41.67205 | 38073 ft | 486 kts | 292° |
| 2026-04-27 10:00 | 39.12389 | 41.59325 | 38061 ft | 486 kts | 292° |
| 2026-04-27 10:00 | 39.15282 | 41.51465 | 38062 ft | 486 kts | 292° |
| 2026-04-27 10:01 | 39.18187 | 41.43567 | 38063 ft | 486 kts | 292° |
| 2026-04-27 10:01 | 39.21075 | 41.35718 | 38061 ft | 486 kts | 292° |
| 2026-04-27 10:02 | 39.23961 | 41.27852 | 38059 ft | 485 kts | 292° |
| 2026-04-27 10:02 | 39.26834 | 41.19992 | 38056 ft | 485 kts | 292° |
| 2026-04-27 10:03 | 39.29713 | 41.12100 | 38062 ft | 484 kts | 292° |
| 2026-04-27 10:03 | 39.32567 | 41.04256 | 38052 ft | 483 kts | 292° |
| 2026-04-27 10:04 | 39.35414 | 40.96410 | 38062 ft | 482 kts | 292° |
| 2026-04-27 10:04 | 39.38247 | 40.88579 | 38061 ft | 481 kts | 292° |
| 2026-04-27 10:05 | 39.41075 | 40.80746 | 38056 ft | 481 kts | 292° |
| 2026-04-27 10:05 | 39.43912 | 40.72852 | 38050 ft | 480 kts | 292° |
| 2026-04-27 10:06 | 39.46708 | 40.65056 | 38058 ft | 480 kts | 292° |
| 2026-04-27 10:06 | 39.49512 | 40.57217 | 38059 ft | 479 kts | 292° |
| 2026-04-27 10:07 | 39.51841 | 40.50693 | 38053 ft | 479 kts | 292° |
| 2026-04-27 10:07 | 39.54633 | 40.42884 | 38059 ft | 478 kts | 292° |
| 2026-04-27 10:08 | 39.57880 | 40.33766 | 38060 ft | 478 kts | 292° |
| 2026-04-27 10:08 | 39.60212 | 40.27199 | 38059 ft | 478 kts | 292° |
| 2026-04-27 10:09 | 39.62965 | 40.19430 | 38066 ft | 478 kts | 292° |
| 2026-04-27 10:09 | 39.65732 | 40.11590 | 38068 ft | 477 kts | 292° |
| 2026-04-27 10:10 | 39.68498 | 40.03732 | 38074 ft | 477 kts | 292° |
| 2026-04-27 10:10 | 39.71258 | 39.95874 | 38083 ft | 477 kts | 292° |
| 2026-04-27 10:11 | 39.73999 | 39.88051 | 38085 ft | 476 kts | 292° |
| 2026-04-27 10:11 | 39.76731 | 39.80226 | 38083 ft | 476 kts | 292° |
| 2026-04-27 10:12 | 39.79461 | 39.72388 | 38077 ft | 476 kts | 292° |
| 2026-04-27 10:12 | 39.82187 | 39.64542 | 38079 ft | 475 kts | 292° |
| 2026-04-27 10:13 | 39.84901 | 39.56709 | 38079 ft | 475 kts | 292° |
| 2026-04-27 10:13 | 39.87618 | 39.48863 | 38079 ft | 475 kts | 292° |
| 2026-04-27 10:14 | 39.90318 | 39.41013 | 38082 ft | 475 kts | 292° |
| 2026-04-27 10:14 | 39.93007 | 39.33172 | 38081 ft | 475 kts | 292° |
| 2026-04-27 10:15 | 39.95701 | 39.25315 | 38085 ft | 475 kts | 292° |
| 2026-04-27 10:15 | 39.97042 | 39.21400 | 38272 ft | 475 kts | 292° |
| 2026-04-27 10:15 | 39.98396 | 39.17446 | 38594 ft | 473 kts | 292° |
| 2026-04-27 10:16 | 39.99719 | 39.13578 | 38882 ft | 471 kts | 292° |
| 2026-04-27 10:16 | 40.01055 | 39.09663 | 39089 ft | 470 kts | 292° |
| 2026-04-27 10:16 | 40.02386 | 39.05757 | 39269 ft | 470 kts | 292° |
| 2026-04-27 10:16 | 40.03715 | 39.01851 | 39459 ft | 470 kts | 292° |
| 2026-04-27 10:17 | 40.05039 | 38.97953 | 39629 ft | 470 kts | 292° |
| 2026-04-27 10:17 | 40.06348 | 38.94096 | 39802 ft | 469 kts | 292° |
| 2026-04-27 10:17 | 40.07670 | 38.90194 | 39973 ft | 469 kts | 292° |
| 2026-04-27 10:17 | 40.08993 | 38.86282 | 40068 ft | 471 kts | 292° |
| 2026-04-27 10:18 | 40.11635 | 38.78454 | 40085 ft | 471 kts | 292° |
| 2026-04-27 10:18 | 40.14279 | 38.70621 | 40088 ft | 470 kts | 292° |
| 2026-04-27 10:19 | 40.16898 | 38.62819 | 40089 ft | 470 kts | 291° |
| 2026-04-27 10:19 | 40.19529 | 38.54948 | 40089 ft | 470 kts | 291° |
| 2026-04-27 10:20 | 40.22133 | 38.47141 | 40094 ft | 470 kts | 291° |